sensor_id;sensor_type;location;lat;lon;timestamp;temperature;humidity
15947;DHT22;8072;52.554;7.966;2022-12-13T00:01:45;-2.60;99.90
15947;DHT22;8072;52.554;7.966;2022-12-13T00:04:11;-2.60;99.90
15947;DHT22;8072;52.554;7.966;2022-12-13T00:06:38;-2.60;99.90
15947;DHT22;8072;52.554;7.966;2022-12-13T00:09:04;-2.60;99.90
15947;DHT22;8072;52.554;7.966;2022-12-13T00:11:31;-2.60;99.90
15947;DHT22;8072;52.554;7.966;2022-12-13T00:13:57;-2.60;99.90
15947;DHT22;8072;52.554;7.966;2022-12-13T00:16:24;-2.70;99.90
15947;DHT22;8072;52.554;7.966;2022-12-13T00:18:53;-2.70;99.90
15947;DHT22;8072;52.554;7.966;2022-12-13T00:21:21;-2.70;99.90
15947;DHT22;8072;52.554;7.966;2022-12-13T00:23:47;-2.70;99.90
15947;DHT22;8072;52.554;7.966;2022-12-13T00:26:16;-2.80;99.90
15947;DHT22;8072;52.554;7.966;2022-12-13T00:28:42;-2.80;99.90
15947;DHT22;8072;52.554;7.966;2022-12-13T00:31:08;-2.90;99.90
15947;DHT22;8072;52.554;7.966;2022-12-13T00:33:34;-3.00;99.90
15947;DHT22;8072;52.554;7.966;2022-12-13T00:36:03;-3.10;99.90
15947;DHT22;8072;52.554;7.966;2022-12-13T00:38:29;-3.10;99.90
15947;DHT22;8072;52.554;7.966;2022-12-13T00:40:55;-3.20;99.90
15947;DHT22;8072;52.554;7.966;2022-12-13T00:43:20;-3.20;99.90
15947;DHT22;8072;52.554;7.966;2022-12-13T00:45:46;-3.20;99.90
15947;DHT22;8072;52.554;7.966;2022-12-13T00:48:13;-3.20;99.90
15947;DHT22;8072;52.554;7.966;2022-12-13T00:50:39;-3.20;99.90
15947;DHT22;8072;52.554;7.966;2022-12-13T00:53:05;-3.20;99.90
15947;DHT22;8072;52.554;7.966;2022-12-13T00:55:31;-3.20;99.90
15947;DHT22;8072;52.554;7.966;2022-12-13T00:57:57;-3.20;99.90
15947;DHT22;8072;52.554;7.966;2022-12-13T01:00:23;-3.20;99.90
15947;DHT22;8072;52.554;7.966;2022-12-13T01:02:51;-3.20;99.90
15947;DHT22;8072;52.554;7.966;2022-12-13T01:05:17;-3.20;99.90
15947;DHT22;8072;52.554;7.966;2022-12-13T01:07:43;-3.20;99.90
15947;DHT22;8072;52.554;7.966;2022-12-13T01:10:11;-3.20;99.90
15947;DHT22;8072;52.554;7.966;2022-12-13T01:12:37;-3.20;99.90
15947;DHT22;8072;52.554;7.966;2022-12-13T01:15:04;-3.20;99.90
15947;DHT22;8072;52.554;7.966;2022-12-13T01:17:30;-3.10;99.90
15947;DHT22;8072;52.554;7.966;2022-12-13T01:19:56;-3.20;99.90
15947;DHT22;8072;52.554;7.966;2022-12-13T01:22:22;-3.20;99.90
15947;DHT22;8072;52.554;7.966;2022-12-13T01:24:47;-3.20;99.90
15947;DHT22;8072;52.554;7.966;2022-12-13T01:27:13;-3.20;99.90
15947;DHT22;8072;52.554;7.966;2022-12-13T01:29:39;-3.20;99.90
15947;DHT22;8072;52.554;7.966;2022-12-13T01:32:05;-3.20;99.90
15947;DHT22;8072;52.554;7.966;2022-12-13T01:34:30;-3.20;99.90
15947;DHT22;8072;52.554;7.966;2022-12-13T01:36:56;-3.20;99.90
15947;DHT22;8072;52.554;7.966;2022-12-13T01:39:22;-3.20;99.90
15947;DHT22;8072;52.554;7.966;2022-12-13T01:41:51;-3.30;99.90
15947;DHT22;8072;52.554;7.966;2022-12-13T01:44:57;-3.30;99.90
15947;DHT22;8072;52.554;7.966;2022-12-13T01:47:43;-3.30;99.90
15947;DHT22;8072;52.554;7.966;2022-12-13T01:50:18;-3.30;99.90
15947;DHT22;8072;52.554;7.966;2022-12-13T01:52:46;-3.20;99.90
15947;DHT22;8072;52.554;7.966;2022-12-13T01:55:13;-3.30;99.90
15947;DHT22;8072;52.554;7.966;2022-12-13T01:57:41;-3.20;99.90
15947;DHT22;8072;52.554;7.966;2022-12-13T02:00:09;-3.30;99.90
15947;DHT22;8072;52.554;7.966;2022-12-13T02:02:37;-3.30;99.90
15947;DHT22;8072;52.554;7.966;2022-12-13T02:07:44;-3.30;99.90
15947;DHT22;8072;52.554;7.966;2022-12-13T02:10:11;-3.30;99.90
15947;DHT22;8072;52.554;7.966;2022-12-13T02:12:39;-3.30;99.90
15947;DHT22;8072;52.554;7.966;2022-12-13T02:15:16;-3.30;99.90
15947;DHT22;8072;52.554;7.966;2022-12-13T02:18:08;-3.30;99.90
15947;DHT22;8072;52.554;7.966;2022-12-13T02:34:44;-3.30;99.90
15947;DHT22;8072;52.554;7.966;2022-12-13T02:37:23;-3.30;99.90
15947;DHT22;8072;52.554;7.966;2022-12-13T02:40:05;-3.30;99.90
15947;DHT22;8072;52.554;7.966;2022-12-13T02:42:39;-3.40;99.90
15947;DHT22;8072;52.554;7.966;2022-12-13T02:45:12;-3.40;99.90
15947;DHT22;8072;52.554;7.966;2022-12-13T02:47:40;-3.40;99.90
15947;DHT22;8072;52.554;7.966;2022-12-13T02:50:09;-3.40;99.90
15947;DHT22;8072;52.554;7.966;2022-12-13T02:52:38;-3.50;99.90
15947;DHT22;8072;52.554;7.966;2022-12-13T02:55:10;-3.50;99.90
15947;DHT22;8072;52.554;7.966;2022-12-13T02:57:39;-3.50;99.90
15947;DHT22;8072;52.554;7.966;2022-12-13T03:00:19;-3.50;99.90
15947;DHT22;8072;52.554;7.966;2022-12-13T03:09:00;-3.60;99.90
15947;DHT22;8072;52.554;7.966;2022-12-13T03:14:53;-3.60;99.90
15947;DHT22;8072;52.554;7.966;2022-12-13T03:17:22;-3.70;99.90
15947;DHT22;8072;52.554;7.966;2022-12-13T03:19:52;-3.70;99.90
15947;DHT22;8072;52.554;7.966;2022-12-13T03:22:18;-3.70;99.90
15947;DHT22;8072;52.554;7.966;2022-12-13T03:24:44;-3.60;99.90
15947;DHT22;8072;52.554;7.966;2022-12-13T03:27:10;-3.70;99.90
15947;DHT22;8072;52.554;7.966;2022-12-13T03:29:38;-3.70;99.90
15947;DHT22;8072;52.554;7.966;2022-12-13T03:32:04;-3.70;99.90
15947;DHT22;8072;52.554;7.966;2022-12-13T03:34:30;-3.70;99.90
15947;DHT22;8072;52.554;7.966;2022-12-13T03:36:55;-3.70;99.90
15947;DHT22;8072;52.554;7.966;2022-12-13T03:39:22;-3.70;99.90
15947;DHT22;8072;52.554;7.966;2022-12-13T03:41:48;-3.70;99.90
15947;DHT22;8072;52.554;7.966;2022-12-13T03:44:14;-3.70;99.90
15947;DHT22;8072;52.554;7.966;2022-12-13T03:46:40;-3.70;99.90
15947;DHT22;8072;52.554;7.966;2022-12-13T03:49:06;-3.80;99.90
15947;DHT22;8072;52.554;7.966;2022-12-13T03:51:32;-3.70;99.90
15947;DHT22;8072;52.554;7.966;2022-12-13T03:53:57;-3.70;99.90
15947;DHT22;8072;52.554;7.966;2022-12-13T03:56:23;-3.80;99.90
15947;DHT22;8072;52.554;7.966;2022-12-13T03:58:49;-3.80;99.90
15947;DHT22;8072;52.554;7.966;2022-12-13T04:01:16;-3.80;99.90
15947;DHT22;8072;52.554;7.966;2022-12-13T04:03:44;-3.80;99.90
15947;DHT22;8072;52.554;7.966;2022-12-13T04:06:10;-3.90;99.90
15947;DHT22;8072;52.554;7.966;2022-12-13T04:08:37;-4.00;99.90
15947;DHT22;8072;52.554;7.966;2022-12-13T04:11:05;-4.10;99.90
15947;DHT22;8072;52.554;7.966;2022-12-13T04:13:50;-4.20;99.90
15947;DHT22;8072;52.554;7.966;2022-12-13T04:16:16;-4.20;99.90
15947;DHT22;8072;52.554;7.966;2022-12-13T04:18:42;-4.20;99.90
15947;DHT22;8072;52.554;7.966;2022-12-13T04:21:08;-4.20;99.90
15947;DHT22;8072;52.554;7.966;2022-12-13T04:23:33;-4.30;99.90
15947;DHT22;8072;52.554;7.966;2022-12-13T04:26:01;-4.20;99.90
15947;DHT22;8072;52.554;7.966;2022-12-13T04:28:27;-4.20;99.90
15947;DHT22;8072;52.554;7.966;2022-12-13T04:30:53;-4.20;99.90
15947;DHT22;8072;52.554;7.966;2022-12-13T04:33:20;-4.10;99.90
15947;DHT22;8072;52.554;7.966;2022-12-13T04:35:46;-4.10;99.90
15947;DHT22;8072;52.554;7.966;2022-12-13T04:38:12;-4.10;99.90
15947;DHT22;8072;52.554;7.966;2022-12-13T04:40:40;-4.00;99.90
15947;DHT22;8072;52.554;7.966;2022-12-13T04:43:07;-4.00;99.90
15947;DHT22;8072;52.554;7.966;2022-12-13T04:45:32;-4.00;99.90
15947;DHT22;8072;52.554;7.966;2022-12-13T04:47:58;-4.00;99.90
15947;DHT22;8072;52.554;7.966;2022-12-13T04:50:24;-4.00;99.90
15947;DHT22;8072;52.554;7.966;2022-12-13T04:52:50;-4.00;99.90
15947;DHT22;8072;52.554;7.966;2022-12-13T04:55:15;-4.10;99.90
15947;DHT22;8072;52.554;7.966;2022-12-13T04:57:41;-4.10;99.90
15947;DHT22;8072;52.554;7.966;2022-12-13T05:00:10;-4.20;99.90
15947;DHT22;8072;52.554;7.966;2022-12-13T05:02:38;-4.20;99.90
15947;DHT22;8072;52.554;7.966;2022-12-13T05:05:07;-4.10;99.90
15947;DHT22;8072;52.554;7.966;2022-12-13T05:10:25;-4.10;99.90
15947;DHT22;8072;52.554;7.966;2022-12-13T05:12:51;-4.10;99.90
15947;DHT22;8072;52.554;7.966;2022-12-13T05:15:16;-4.10;99.90
15947;DHT22;8072;52.554;7.966;2022-12-13T05:17:42;-4.10;99.90
15947;DHT22;8072;52.554;7.966;2022-12-13T05:20:09;-4.10;99.90
15947;DHT22;8072;52.554;7.966;2022-12-13T05:22:36;-4.10;99.90
15947;DHT22;8072;52.554;7.966;2022-12-13T05:25:03;-4.10;99.90
15947;DHT22;8072;52.554;7.966;2022-12-13T05:27:29;-4.20;99.90
15947;DHT22;8072;52.554;7.966;2022-12-13T05:29:55;-4.20;99.90
15947;DHT22;8072;52.554;7.966;2022-12-13T05:32:21;-4.20;99.90
15947;DHT22;8072;52.554;7.966;2022-12-13T05:34:47;-4.20;99.90
15947;DHT22;8072;52.554;7.966;2022-12-13T05:37:12;-4.20;99.90
15947;DHT22;8072;52.554;7.966;2022-12-13T05:39:38;-4.20;99.90
15947;DHT22;8072;52.554;7.966;2022-12-13T05:42:04;-4.20;99.90
15947;DHT22;8072;52.554;7.966;2022-12-13T05:44:31;-4.20;99.90
15947;DHT22;8072;52.554;7.966;2022-12-13T05:46:57;-4.20;99.90
15947;DHT22;8072;52.554;7.966;2022-12-13T05:49:23;-4.20;99.90
15947;DHT22;8072;52.554;7.966;2022-12-13T05:51:48;-4.20;99.90
15947;DHT22;8072;52.554;7.966;2022-12-13T05:54:14;-4.20;99.90
15947;DHT22;8072;52.554;7.966;2022-12-13T05:56:40;-4.30;99.90
15947;DHT22;8072;52.554;7.966;2022-12-13T05:59:06;-4.30;99.90
15947;DHT22;8072;52.554;7.966;2022-12-13T06:01:32;-4.30;99.90
15947;DHT22;8072;52.554;7.966;2022-12-13T06:03:57;-4.40;99.90
15947;DHT22;8072;52.554;7.966;2022-12-13T06:06:23;-4.40;99.90
15947;DHT22;8072;52.554;7.966;2022-12-13T06:08:49;-4.50;99.90
15947;DHT22;8072;52.554;7.966;2022-12-13T06:11:15;-4.50;99.90
15947;DHT22;8072;52.554;7.966;2022-12-13T06:13:42;-4.50;99.90
15947;DHT22;8072;52.554;7.966;2022-12-13T06:16:09;-4.50;99.90
15947;DHT22;8072;52.554;7.966;2022-12-13T06:18:35;-4.50;99.90
15947;DHT22;8072;52.554;7.966;2022-12-13T06:21:04;-4.50;99.90
15947;DHT22;8072;52.554;7.966;2022-12-13T06:23:31;-4.60;99.90
15947;DHT22;8072;52.554;7.966;2022-12-13T06:25:57;-4.50;99.90
15947;DHT22;8072;52.554;7.966;2022-12-13T06:28:23;-4.60;99.90
15947;DHT22;8072;52.554;7.966;2022-12-13T06:30:49;-4.50;99.90
15947;DHT22;8072;52.554;7.966;2022-12-13T06:33:19;-4.60;99.90
15947;DHT22;8072;52.554;7.966;2022-12-13T06:35:45;-4.60;99.90
15947;DHT22;8072;52.554;7.966;2022-12-13T06:38:12;-4.60;99.90
15947;DHT22;8072;52.554;7.966;2022-12-13T06:40:38;-4.60;99.90
15947;DHT22;8072;52.554;7.966;2022-12-13T06:43:04;-4.60;99.90
15947;DHT22;8072;52.554;7.966;2022-12-13T06:45:30;-4.60;99.90
15947;DHT22;8072;52.554;7.966;2022-12-13T06:47:56;-4.60;99.90
15947;DHT22;8072;52.554;7.966;2022-12-13T06:50:23;-4.60;99.90
15947;DHT22;8072;52.554;7.966;2022-12-13T06:52:48;-4.60;99.90
15947;DHT22;8072;52.554;7.966;2022-12-13T06:55:14;-4.60;99.90
15947;DHT22;8072;52.554;7.966;2022-12-13T06:57:40;-4.60;99.90
15947;DHT22;8072;52.554;7.966;2022-12-13T07:00:09;-4.60;99.90
15947;DHT22;8072;52.554;7.966;2022-12-13T07:02:35;-4.70;99.90
15947;DHT22;8072;52.554;7.966;2022-12-13T07:05:02;-4.80;99.90
15947;DHT22;8072;52.554;7.966;2022-12-13T07:07:28;-4.80;99.90
15947;DHT22;8072;52.554;7.966;2022-12-13T07:09:54;-4.80;99.90
15947;DHT22;8072;52.554;7.966;2022-12-13T07:12:20;-4.90;99.90
15947;DHT22;8072;52.554;7.966;2022-12-13T07:14:46;-4.90;99.90
15947;DHT22;8072;52.554;7.966;2022-12-13T07:17:12;-4.80;99.90
15947;DHT22;8072;52.554;7.966;2022-12-13T07:19:37;-4.90;99.90
15947;DHT22;8072;52.554;7.966;2022-12-13T07:22:04;-4.90;99.90
15947;DHT22;8072;52.554;7.966;2022-12-13T07:24:30;-4.90;99.90
15947;DHT22;8072;52.554;7.966;2022-12-13T07:26:56;-4.90;99.90
15947;DHT22;8072;52.554;7.966;2022-12-13T07:29:22;-4.80;99.90
15947;DHT22;8072;52.554;7.966;2022-12-13T07:31:47;-4.80;99.90
15947;DHT22;8072;52.554;7.966;2022-12-13T07:34:13;-4.80;99.90
15947;DHT22;8072;52.554;7.966;2022-12-13T07:36:39;-4.80;99.90
15947;DHT22;8072;52.554;7.966;2022-12-13T07:39:04;-4.70;99.90
15947;DHT22;8072;52.554;7.966;2022-12-13T07:41:30;-4.70;99.90
15947;DHT22;8072;52.554;7.966;2022-12-13T07:43:57;-4.70;99.90
15947;DHT22;8072;52.554;7.966;2022-12-13T07:46:23;-4.70;99.90
15947;DHT22;8072;52.554;7.966;2022-12-13T07:48:49;-4.70;99.90
15947;DHT22;8072;52.554;7.966;2022-12-13T07:51:14;-4.70;99.90
15947;DHT22;8072;52.554;7.966;2022-12-13T07:53:40;-4.70;99.90
15947;DHT22;8072;52.554;7.966;2022-12-13T07:56:09;-4.60;99.90
15947;DHT22;8072;52.554;7.966;2022-12-13T07:58:35;-4.60;99.90
15947;DHT22;8072;52.554;7.966;2022-12-13T08:01:07;-4.60;99.90
15947;DHT22;8072;52.554;7.966;2022-12-13T08:03:34;-4.60;99.90
15947;DHT22;8072;52.554;7.966;2022-12-13T08:06:03;-4.60;99.90
15947;DHT22;8072;52.554;7.966;2022-12-13T08:08:30;-4.60;99.90
15947;DHT22;8072;52.554;7.966;2022-12-13T08:11:09;-4.60;99.90
15947;DHT22;8072;52.554;7.966;2022-12-13T08:13:36;-4.50;99.90
15947;DHT22;8072;52.554;7.966;2022-12-13T08:16:05;-4.40;99.90
15947;DHT22;8072;52.554;7.966;2022-12-13T08:18:32;-4.50;99.90
15947;DHT22;8072;52.554;7.966;2022-12-13T08:20:59;-4.40;99.90
15947;DHT22;8072;52.554;7.966;2022-12-13T08:23:26;-4.40;99.90
15947;DHT22;8072;52.554;7.966;2022-12-13T08:25:53;-4.40;99.90
15947;DHT22;8072;52.554;7.966;2022-12-13T08:28:19;-4.40;99.90
15947;DHT22;8072;52.554;7.966;2022-12-13T08:30:45;-4.40;99.90
15947;DHT22;8072;52.554;7.966;2022-12-13T08:33:11;-4.30;99.90
15947;DHT22;8072;52.554;7.966;2022-12-13T08:35:37;-4.30;99.90
15947;DHT22;8072;52.554;7.966;2022-12-13T08:38:02;-4.20;99.90
15947;DHT22;8072;52.554;7.966;2022-12-13T08:40:28;-4.20;99.90
15947;DHT22;8072;52.554;7.966;2022-12-13T08:42:54;-4.20;99.90
15947;DHT22;8072;52.554;7.966;2022-12-13T08:45:20;-4.20;99.90
15947;DHT22;8072;52.554;7.966;2022-12-13T08:47:48;-4.20;99.90
15947;DHT22;8072;52.554;7.966;2022-12-13T08:50:14;-4.10;99.90
15947;DHT22;8072;52.554;7.966;2022-12-13T08:52:39;-4.10;99.90
15947;DHT22;8072;52.554;7.966;2022-12-13T08:55:10;-4.00;99.90
15947;DHT22;8072;52.554;7.966;2022-12-13T08:57:37;-4.00;99.90
15947;DHT22;8072;52.554;7.966;2022-12-13T09:00:04;-4.00;99.90
15947;DHT22;8072;52.554;7.966;2022-12-13T09:02:30;-3.90;99.90
15947;DHT22;8072;52.554;7.966;2022-12-13T09:04:56;-3.90;99.90
15947;DHT22;8072;52.554;7.966;2022-12-13T09:07:22;-3.80;99.90
15947;DHT22;8072;52.554;7.966;2022-12-13T09:09:47;-3.80;99.90
15947;DHT22;8072;52.554;7.966;2022-12-13T09:12:13;-3.70;99.90
15947;DHT22;8072;52.554;7.966;2022-12-13T09:14:39;-3.70;99.90
15947;DHT22;8072;52.554;7.966;2022-12-13T09:17:05;-3.60;99.90
15947;DHT22;8072;52.554;7.966;2022-12-13T09:19:31;-3.60;99.90
15947;DHT22;8072;52.554;7.966;2022-12-13T09:21:57;-3.50;99.90
15947;DHT22;8072;52.554;7.966;2022-12-13T09:24:23;-3.50;99.90
15947;DHT22;8072;52.554;7.966;2022-12-13T09:26:48;-3.50;99.90
15947;DHT22;8072;52.554;7.966;2022-12-13T09:29:14;-3.40;99.90
15947;DHT22;8072;52.554;7.966;2022-12-13T09:31:42;-3.40;99.90
15947;DHT22;8072;52.554;7.966;2022-12-13T09:34:09;-3.30;99.90
15947;DHT22;8072;52.554;7.966;2022-12-13T09:36:35;-3.30;99.90
15947;DHT22;8072;52.554;7.966;2022-12-13T09:39:01;-3.20;99.90
15947;DHT22;8072;52.554;7.966;2022-12-13T09:41:38;-3.20;99.90
15947;DHT22;8072;52.554;7.966;2022-12-13T09:46:43;-3.10;99.90
15947;DHT22;8072;52.554;7.966;2022-12-13T09:49:28;-3.00;99.90
15947;DHT22;8072;52.554;7.966;2022-12-13T09:52:02;-2.90;99.90
15947;DHT22;8072;52.554;7.966;2022-12-13T09:54:28;-2.80;99.90
15947;DHT22;8072;52.554;7.966;2022-12-13T09:56:55;-2.70;99.90
15947;DHT22;8072;52.554;7.966;2022-12-13T09:59:32;-2.60;99.90
15947;DHT22;8072;52.554;7.966;2022-12-13T10:02:45;-2.60;99.90
15947;DHT22;8072;52.554;7.966;2022-12-13T10:07:54;-2.40;99.90
15947;DHT22;8072;52.554;7.966;2022-12-13T10:10:21;-2.30;99.90
15947;DHT22;8072;52.554;7.966;2022-12-13T10:12:53;-2.20;99.90
15947;DHT22;8072;52.554;7.966;2022-12-13T10:15:20;-2.10;99.90
15947;DHT22;8072;52.554;7.966;2022-12-13T10:17:48;-2.00;99.90
15947;DHT22;8072;52.554;7.966;2022-12-13T10:20:19;-1.90;99.90
15947;DHT22;8072;52.554;7.966;2022-12-13T10:22:46;-1.90;99.90
15947;DHT22;8072;52.554;7.966;2022-12-13T10:25:11;-1.70;99.90
15947;DHT22;8072;52.554;7.966;2022-12-13T10:27:40;-1.70;99.90
15947;DHT22;8072;52.554;7.966;2022-12-13T10:30:18;-1.50;99.90
15947;DHT22;8072;52.554;7.966;2022-12-13T10:35:29;-1.30;99.90
15947;DHT22;8072;52.554;7.966;2022-12-13T10:38:00;-1.20;99.90
15947;DHT22;8072;52.554;7.966;2022-12-13T10:46:00;-0.90;99.90
15947;DHT22;8072;52.554;7.966;2022-12-13T10:48:32;-0.90;99.90
15947;DHT22;8072;52.554;7.966;2022-12-13T10:51:06;-0.90;99.90
15947;DHT22;8072;52.554;7.966;2022-12-13T10:53:38;-0.80;99.90
15947;DHT22;8072;52.554;7.966;2022-12-13T10:56:05;-0.80;99.90
15947;DHT22;8072;52.554;7.966;2022-12-13T10:58:39;-0.80;99.90
15947;DHT22;8072;52.554;7.966;2022-12-13T11:01:10;-0.70;99.90
15947;DHT22;8072;52.554;7.966;2022-12-13T11:03:36;-0.70;99.90
15947;DHT22;8072;52.554;7.966;2022-12-13T11:06:22;-0.70;99.90
15947;DHT22;8072;52.554;7.966;2022-12-13T11:08:49;-0.60;99.90
15947;DHT22;8072;52.554;7.966;2022-12-13T11:11:16;-0.50;99.90
15947;DHT22;8072;52.554;7.966;2022-12-13T11:13:51;-0.40;99.90
15947;DHT22;8072;52.554;7.966;2022-12-13T11:16:28;-0.40;99.90
15947;DHT22;8072;52.554;7.966;2022-12-13T11:18:58;-0.30;99.90
15947;DHT22;8072;52.554;7.966;2022-12-13T11:21:30;-0.20;99.90
15947;DHT22;8072;52.554;7.966;2022-12-13T11:24:07;-0.20;99.90
15947;DHT22;8072;52.554;7.966;2022-12-13T11:26:36;-0.10;99.90
15947;DHT22;8072;52.554;7.966;2022-12-13T11:35:28;0.30;99.90
15947;DHT22;8072;52.554;7.966;2022-12-13T11:37:46;0.30;99.90
15947;DHT22;8072;52.554;7.966;2022-12-13T11:42:51;0.50;99.90
15947;DHT22;8072;52.554;7.966;2022-12-13T11:45:36;0.50;99.90
15947;DHT22;8072;52.554;7.966;2022-12-13T11:48:16;0.60;99.90
15947;DHT22;8072;52.554;7.966;2022-12-13T11:50:46;0.60;99.90
15947;DHT22;8072;52.554;7.966;2022-12-13T11:53:38;0.70;99.90
15947;DHT22;8072;52.554;7.966;2022-12-13T12:01:48;0.90;99.90
15947;DHT22;8072;52.554;7.966;2022-12-13T12:04:37;0.90;99.90
15947;DHT22;8072;52.554;7.966;2022-12-13T12:07:12;0.90;99.90
15947;DHT22;8072;52.554;7.966;2022-12-13T12:09:48;0.90;99.90
15947;DHT22;8072;52.554;7.966;2022-12-13T12:15:20;1.00;99.90
15947;DHT22;8072;52.554;7.966;2022-12-13T12:17:47;1.00;99.90
15947;DHT22;8072;52.554;7.966;2022-12-13T12:20:15;1.10;99.90
15947;DHT22;8072;52.554;7.966;2022-12-13T12:23:07;1.10;99.90
15947;DHT22;8072;52.554;7.966;2022-12-13T12:26:10;1.10;99.90
15947;DHT22;8072;52.554;7.966;2022-12-13T12:50:29;1.60;99.90
15947;DHT22;8072;52.554;7.966;2022-12-13T12:55:47;1.80;99.90
15947;DHT22;8072;52.554;7.966;2022-12-13T13:03:39;1.90;99.90
15947;DHT22;8072;52.554;7.966;2022-12-13T13:06:32;1.90;99.90
15947;DHT22;8072;52.554;7.966;2022-12-13T13:09:05;1.90;99.90
15947;DHT22;8072;52.554;7.966;2022-12-13T13:11:38;1.90;99.90
15947;DHT22;8072;52.554;7.966;2022-12-13T13:14:34;2.00;99.90
15947;DHT22;8072;52.554;7.966;2022-12-13T13:20:16;2.10;99.90
15947;DHT22;8072;52.554;7.966;2022-12-13T13:22:42;2.10;99.90
15947;DHT22;8072;52.554;7.966;2022-12-13T13:27:46;2.00;99.90
15947;DHT22;8072;52.554;7.966;2022-12-13T13:30:23;2.00;99.90
15947;DHT22;8072;52.554;7.966;2022-12-13T13:32:55;2.00;99.90
15947;DHT22;8072;52.554;7.966;2022-12-13T13:38:02;1.90;99.90
15947;DHT22;8072;52.554;7.966;2022-12-13T13:40:37;1.90;99.90
15947;DHT22;8072;52.554;7.966;2022-12-13T13:46:08;1.90;99.90
15947;DHT22;8072;52.554;7.966;2022-12-13T13:49:03;1.80;99.90
15947;DHT22;8072;52.554;7.966;2022-12-13T13:57:36;1.60;99.90
15947;DHT22;8072;52.554;7.966;2022-12-13T14:00:10;1.70;99.90
15947;DHT22;8072;52.554;7.966;2022-12-13T14:06:03;1.60;99.90
15947;DHT22;8072;52.554;7.966;2022-12-13T14:18:09;1.50;99.90
15947;DHT22;8072;52.554;7.966;2022-12-13T14:21:08;1.50;99.90
15947;DHT22;8072;52.554;7.966;2022-12-13T14:23:48;1.50;99.90
15947;DHT22;8072;52.554;7.966;2022-12-13T14:26:39;1.50;99.90
15947;DHT22;8072;52.554;7.966;2022-12-13T14:29:21;1.40;99.90
15947;DHT22;8072;52.554;7.966;2022-12-13T14:31:48;1.40;99.90
15947;DHT22;8072;52.554;7.966;2022-12-13T14:34:26;1.30;99.90
15947;DHT22;8072;52.554;7.966;2022-12-13T14:37:01;1.20;99.90
15947;DHT22;8072;52.554;7.966;2022-12-13T14:39:29;1.10;99.90
15947;DHT22;8072;52.554;7.966;2022-12-13T14:42:00;1.10;99.90
15947;DHT22;8072;52.554;7.966;2022-12-13T14:44:31;1.00;99.90
15947;DHT22;8072;52.554;7.966;2022-12-13T14:47:01;0.90;99.90
15947;DHT22;8072;52.554;7.966;2022-12-13T14:49:30;0.90;99.90
15947;DHT22;8072;52.554;7.966;2022-12-13T14:52:00;0.80;99.90
15947;DHT22;8072;52.554;7.966;2022-12-13T14:54:58;0.80;99.90
15947;DHT22;8072;52.554;7.966;2022-12-13T14:57:26;0.70;99.90
15947;DHT22;8072;52.554;7.966;2022-12-13T14:59:55;0.60;99.90
15947;DHT22;8072;52.554;7.966;2022-12-13T15:02:27;0.60;99.90
15947;DHT22;8072;52.554;7.966;2022-12-13T15:04:56;0.50;99.90
15947;DHT22;8072;52.554;7.966;2022-12-13T15:09:53;0.50;99.90
15947;DHT22;8072;52.554;7.966;2022-12-13T15:12:21;0.40;99.90
15947;DHT22;8072;52.554;7.966;2022-12-13T15:14:52;0.40;99.90
15947;DHT22;8072;52.554;7.966;2022-12-13T15:17:37;0.40;99.90
15947;DHT22;8072;52.554;7.966;2022-12-13T15:22:47;0.20;99.90
15947;DHT22;8072;52.554;7.966;2022-12-13T15:25:21;0.10;99.90
15947;DHT22;8072;52.554;7.966;2022-12-13T15:27:47;0.10;99.90
15947;DHT22;8072;52.554;7.966;2022-12-13T15:30:15;0.10;99.90
15947;DHT22;8072;52.554;7.966;2022-12-13T15:35:41;-0.10;99.90
15947;DHT22;8072;52.554;7.966;2022-12-13T15:38:12;-0.10;99.90
15947;DHT22;8072;52.554;7.966;2022-12-13T15:40:47;-0.20;99.90
15947;DHT22;8072;52.554;7.966;2022-12-13T15:43:19;-0.20;99.90
15947;DHT22;8072;52.554;7.966;2022-12-13T15:45:48;-0.30;99.90
15947;DHT22;8072;52.554;7.966;2022-12-13T15:51:09;-0.40;99.90
15947;DHT22;8072;52.554;7.966;2022-12-13T15:53:36;-0.40;99.90
15947;DHT22;8072;52.554;7.966;2022-12-13T15:56:23;-0.50;99.90
15947;DHT22;8072;52.554;7.966;2022-12-13T15:58:52;-0.50;99.90
15947;DHT22;8072;52.554;7.966;2022-12-13T16:01:30;-0.50;99.90
15947;DHT22;8072;52.554;7.966;2022-12-13T16:03:56;-0.60;99.90
15947;DHT22;8072;52.554;7.966;2022-12-13T16:06:24;-0.60;99.90
15947;DHT22;8072;52.554;7.966;2022-12-13T16:08:57;-0.60;99.90
15947;DHT22;8072;52.554;7.966;2022-12-13T16:11:33;-0.70;99.90
15947;DHT22;8072;52.554;7.966;2022-12-13T16:17:12;-0.80;99.90
15947;DHT22;8072;52.554;7.966;2022-12-13T16:19:53;-0.80;99.90
15947;DHT22;8072;52.554;7.966;2022-12-13T16:22:19;-0.90;99.90
15947;DHT22;8072;52.554;7.966;2022-12-13T16:24:51;-0.90;99.90
15947;DHT22;8072;52.554;7.966;2022-12-13T16:27:18;-0.90;99.90
15947;DHT22;8072;52.554;7.966;2022-12-13T16:29:44;-1.00;99.90
15947;DHT22;8072;52.554;7.966;2022-12-13T16:32:10;-1.00;99.90
15947;DHT22;8072;52.554;7.966;2022-12-13T16:34:36;-1.00;99.90
15947;DHT22;8072;52.554;7.966;2022-12-13T16:37:03;-1.10;99.90
15947;DHT22;8072;52.554;7.966;2022-12-13T16:39:29;-1.10;99.90
15947;DHT22;8072;52.554;7.966;2022-12-13T16:41:55;-1.20;99.90
15947;DHT22;8072;52.554;7.966;2022-12-13T16:44:25;-1.20;99.90
15947;DHT22;8072;52.554;7.966;2022-12-13T16:46:53;-1.20;99.90
15947;DHT22;8072;52.554;7.966;2022-12-13T16:49:29;-1.30;99.90
15947;DHT22;8072;52.554;7.966;2022-12-13T16:51:55;-1.30;99.90
15947;DHT22;8072;52.554;7.966;2022-12-13T16:54:23;-1.40;99.90
15947;DHT22;8072;52.554;7.966;2022-12-13T16:56:50;-1.40;99.90
15947;DHT22;8072;52.554;7.966;2022-12-13T16:59:18;-1.50;99.90
15947;DHT22;8072;52.554;7.966;2022-12-13T17:01:44;-1.50;99.90
15947;DHT22;8072;52.554;7.966;2022-12-13T17:04:12;-1.60;99.90
15947;DHT22;8072;52.554;7.966;2022-12-13T17:06:38;-1.70;99.90
15947;DHT22;8072;52.554;7.966;2022-12-13T17:09:05;-1.70;99.90
15947;DHT22;8072;52.554;7.966;2022-12-13T17:11:32;-1.70;99.90
15947;DHT22;8072;52.554;7.966;2022-12-13T17:16:52;-1.70;99.90
15947;DHT22;8072;52.554;7.966;2022-12-13T17:19:18;-1.80;99.90
15947;DHT22;8072;52.554;7.966;2022-12-13T17:21:44;-1.80;99.90
15947;DHT22;8072;52.554;7.966;2022-12-13T17:24:10;-1.80;99.90
15947;DHT22;8072;52.554;7.966;2022-12-13T17:26:36;-1.80;99.90
15947;DHT22;8072;52.554;7.966;2022-12-13T17:29:01;-1.90;99.90
15947;DHT22;8072;52.554;7.966;2022-12-13T17:31:27;-1.90;99.90
15947;DHT22;8072;52.554;7.966;2022-12-13T17:33:55;-1.90;99.90
15947;DHT22;8072;52.554;7.966;2022-12-13T17:36:21;-1.90;99.90
15947;DHT22;8072;52.554;7.966;2022-12-13T17:38:48;-2.00;99.90
15947;DHT22;8072;52.554;7.966;2022-12-13T17:41:14;-2.00;99.90
15947;DHT22;8072;52.554;7.966;2022-12-13T17:43:40;-2.00;99.90
15947;DHT22;8072;52.554;7.966;2022-12-13T17:46:11;-2.00;99.90
15947;DHT22;8072;52.554;7.966;2022-12-13T17:48:38;-2.00;99.90
15947;DHT22;8072;52.554;7.966;2022-12-13T17:51:04;-2.00;99.90
15947;DHT22;8072;52.554;7.966;2022-12-13T17:53:31;-2.10;99.90
15947;DHT22;8072;52.554;7.966;2022-12-13T17:56:02;-2.10;99.90
15947;DHT22;8072;52.554;7.966;2022-12-13T17:58:29;-2.10;99.90
15947;DHT22;8072;52.554;7.966;2022-12-13T18:00:57;-2.10;99.90
15947;DHT22;8072;52.554;7.966;2022-12-13T18:03:23;-2.20;99.90
15947;DHT22;8072;52.554;7.966;2022-12-13T18:05:56;-2.20;99.90
15947;DHT22;8072;52.554;7.966;2022-12-13T18:08:23;-2.30;99.90
15947;DHT22;8072;52.554;7.966;2022-12-13T18:10:53;-2.20;99.90
15947;DHT22;8072;52.554;7.966;2022-12-13T18:13:21;-2.30;99.90
15947;DHT22;8072;52.554;7.966;2022-12-13T18:15:49;-2.40;99.90
15947;DHT22;8072;52.554;7.966;2022-12-13T18:18:15;-2.40;99.90